createdAt,value
2023-08-20T00:02:09.638Z,7.45
2023-08-20T00:07:11.715Z,7.60
2023-08-20T00:12:14.613Z,7.47
2023-08-20T00:17:16.666Z,7.88
2023-08-20T00:22:19.230Z,6.72
2023-08-20T00:27:21.887Z,7.00
2023-08-20T00:32:23.810Z,7.10
2023-08-20T00:37:26.746Z,6.70
2023-08-20T00:42:28.782Z,8.13
2023-08-20T00:47:31.171Z,7.13
2023-08-20T00:52:33.149Z,6.90
2023-08-20T00:57:36.164Z,7.32
2023-08-20T01:02:40.260Z,7.80
2023-08-20T01:07:49.425Z,7.95
2023-08-20T01:12:52.553Z,7.57
2023-08-20T01:17:54.739Z,8.25
2023-08-20T01:23:28.920Z,8.07
2023-08-20T01:28:32.170Z,8.52
2023-08-20T01:33:34.365Z,7.45
2023-08-20T01:38:36.978Z,7.97
2023-08-20T01:43:39.239Z,7.55
2023-08-20T01:48:41.021Z,6.85
2023-08-20T01:53:42.856Z,8.20
2023-08-20T01:58:44.830Z,6.97
2023-08-20T02:03:47.092Z,7.25
2023-08-20T02:08:48.933Z,7.55
2023-08-20T02:13:50.801Z,7.82
2023-08-20T02:18:52.601Z,7.30
2023-08-20T02:23:54.425Z,7.30
2023-08-20T02:28:56.490Z,6.88
2023-08-20T02:33:58.291Z,6.90
2023-08-20T02:39:00.211Z,7.35
2023-08-20T02:44:02.031Z,6.70
2023-08-20T02:49:03.858Z,7.63
2023-08-20T02:54:06.063Z,7.25
2023-08-20T02:59:07.913Z,7.75
2023-08-20T03:04:11.421Z,7.05
2023-08-20T03:09:13.300Z,7.22
2023-08-20T03:14:15.179Z,7.38
2023-08-20T03:19:17.548Z,6.82
2023-08-20T03:24:19.412Z,7.00
2023-08-20T03:29:21.252Z,6.90
2023-08-20T03:34:23.268Z,7.97
2023-08-20T03:39:25.136Z,6.82
2023-08-20T03:44:27.201Z,6.65
2023-08-20T03:49:29.031Z,7.20
2023-08-20T03:54:31.041Z,7.07
2023-08-20T03:59:32.985Z,7.22
2023-08-20T04:04:35.025Z,7.40
2023-08-20T04:09:37.430Z,7.45
2023-08-20T04:14:39.253Z,7.43
2023-08-20T04:19:41.141Z,7.05
2023-08-20T04:24:43.060Z,7.53
2023-08-20T04:29:45.183Z,7.82
2023-08-20T04:34:49.080Z,8.05
2023-08-20T04:39:51.041Z,7.68
2023-08-20T04:44:53.040Z,7.65
2023-08-20T04:49:55.208Z,7.22
2023-08-20T04:54:57.116Z,7.57
2023-08-20T04:59:59.260Z,7.60
2023-08-20T05:05:13.284Z,6.55
2023-08-20T05:10:15.326Z,7.78
2023-08-20T05:15:17.207Z,7.45
2023-08-20T05:20:19.130Z,7.30
2023-08-20T05:25:21.006Z,7.90
2023-08-20T05:30:24.390Z,7.45
2023-08-20T05:35:26.402Z,8.63
2023-08-20T05:40:28.938Z,7.88
2023-08-20T05:45:30.913Z,8.70
2023-08-20T05:50:32.912Z,8.40
2023-08-20T05:55:35.232Z,7.82
2023-08-20T06:00:37.302Z,7.63
2023-08-20T06:05:39.602Z,7.65
2023-08-20T06:10:41.507Z,8.52
2023-08-20T06:15:43.334Z,8.63
2023-08-20T06:20:45.202Z,8.30
2023-08-20T06:25:47.089Z,8.50
2023-08-20T06:30:48.941Z,8.80
2023-08-20T06:35:50.741Z,8.15
2023-08-20T06:40:52.694Z,7.68
2023-08-20T06:45:54.630Z,8.75
2023-08-20T06:50:56.469Z,7.68
2023-08-20T06:55:58.242Z,8.00
2023-08-20T07:01:08.173Z,8.18
2023-08-20T07:06:11.388Z,7.53
2023-08-20T07:11:13.324Z,8.30
2023-08-20T07:16:15.330Z,8.50
2023-08-20T07:21:17.200Z,8.40
2023-08-20T07:26:19.030Z,8.55
2023-08-20T07:31:23.104Z,8.55
2023-08-20T07:36:26.566Z,8.50
2023-08-20T07:41:29.586Z,9.02
2023-08-20T07:46:31.618Z,9.05
2023-08-20T07:51:33.481Z,8.70
2023-08-20T07:56:35.511Z,9.27
2023-08-20T08:01:37.892Z,10.02
2023-08-20T08:06:39.740Z,10.10
2023-08-20T08:11:41.571Z,9.10
2023-08-20T08:16:43.489Z,10.88
2023-08-20T08:21:45.741Z,9.73
2023-08-20T08:26:47.558Z,9.68
2023-08-20T08:31:49.564Z,10.00
2023-08-20T08:36:51.334Z,9.32
2023-08-20T08:41:59.749Z,9.63
2023-08-20T08:47:03.153Z,10.18
2023-08-20T08:52:07.178Z,9.77
2023-08-20T08:57:09.311Z,10.40
2023-08-20T09:02:12.851Z,10.93
2023-08-20T09:07:15.781Z,10.25
2023-08-20T09:12:18.851Z,10.48
2023-08-20T09:17:20.857Z,10.63
2023-08-20T09:22:23.639Z,10.55
2023-08-20T09:27:25.898Z,9.90
2023-08-20T09:32:29.490Z,9.60
2023-08-20T09:37:33.575Z,9.40
2023-08-20T09:42:35.854Z,9.40
2023-08-20T09:47:39.772Z,8.73
2023-08-20T09:52:49.664Z,8.52
2023-08-20T09:57:53.206Z,8.13
2023-08-20T10:02:56.018Z,7.85
2023-08-20T10:07:59.841Z,7.22
2023-08-20T10:13:02.073Z,7.20
2023-08-20T10:18:04.241Z,6.85
2023-08-20T10:23:06.197Z,6.13
2023-08-20T10:28:21.298Z,7.35
2023-08-20T10:33:23.124Z,7.68
2023-08-20T10:38:24.932Z,7.28
2023-08-20T10:43:30.943Z,6.20
2023-08-20T10:48:37.703Z,6.57
2023-08-20T10:53:40.798Z,6.65
2023-08-20T10:58:48.052Z,6.60
2023-08-20T11:03:51.986Z,6.53
2023-08-20T11:08:55.196Z,7.22
2023-08-20T11:13:57.150Z,7.57
2023-08-20T11:18:59.268Z,7.45
2023-08-20T11:24:02.140Z,8.15
2023-08-20T11:29:11.272Z,7.10
2023-08-20T11:34:13.408Z,7.35
2023-08-20T11:39:15.243Z,7.78
2023-08-20T11:44:22.566Z,7.35
2023-08-20T11:49:30.801Z,7.70
2023-08-20T11:54:33.331Z,7.32
2023-08-20T11:59:35.293Z,6.97
2023-08-20T12:04:37.360Z,7.80
2023-08-20T12:09:40.696Z,6.55
2023-08-20T12:14:43.530Z,7.45
2023-08-20T12:19:46.950Z,7.32
2023-08-20T12:24:53.218Z,7.22
2023-08-20T12:29:55.444Z,6.80
2023-08-20T12:34:57.927Z,7.03
2023-08-20T12:40:00.257Z,6.78
2023-08-20T12:45:02.825Z,7.78
2023-08-20T12:50:05.979Z,7.88
2023-08-20T12:55:09.590Z,7.55
2023-08-20T13:00:12.780Z,7.05
2023-08-20T13:05:16.221Z,7.18
2023-08-20T13:10:20.412Z,6.80
2023-08-20T13:15:23.595Z,7.43
2023-08-20T13:20:26.449Z,6.72
2023-08-20T13:25:28.559Z,7.25
2023-08-20T13:30:31.095Z,7.13
2023-08-20T13:35:34.183Z,8.07
2023-08-20T13:40:36.836Z,7.40
2023-08-20T13:45:42.107Z,7.60
2023-08-20T13:50:44.115Z,6.68
2023-08-20T13:55:46.076Z,7.55
2023-08-20T14:00:48.097Z,7.60
2023-08-20T14:05:49.981Z,7.53
2023-08-20T14:10:51.848Z,6.90
2023-08-20T14:15:53.811Z,7.68
2023-08-20T14:20:55.954Z,7.22
2023-08-20T14:25:57.938Z,7.10
2023-08-20T14:31:05.780Z,7.28
2023-08-20T14:36:07.973Z,7.70
2023-08-20T14:41:09.821Z,7.43
2023-08-20T14:46:11.836Z,7.10
2023-08-20T14:51:13.904Z,6.70
2023-08-20T14:56:15.761Z,6.63
2023-08-20T15:01:18.223Z,6.85
2023-08-20T15:06:23.302Z,6.22
2023-08-20T15:11:25.185Z,6.72
2023-08-20T15:16:27.072Z,7.00
2023-08-20T15:21:29.964Z,6.88
2023-08-20T15:26:34.657Z,7.15
2023-08-20T15:31:36.904Z,6.95
2023-08-20T15:36:38.877Z,6.97
2023-08-20T15:41:42.581Z,6.60
2023-08-20T15:46:44.560Z,7.10
2023-08-20T15:51:47.569Z,6.82
2023-08-20T15:56:49.452Z,6.80
2023-08-20T16:01:51.297Z,6.80
2023-08-20T16:06:53.325Z,6.90
2023-08-20T16:11:55.156Z,8.23
2023-08-20T16:16:57.103Z,7.35
2023-08-20T16:21:58.918Z,7.97
2023-08-20T16:27:01.716Z,9.07
2023-08-20T16:32:04.031Z,10.27
2023-08-20T16:37:06.491Z,11.00
2023-08-20T16:42:08.367Z,9.90
2023-08-20T16:47:10.263Z,9.88
2023-08-20T16:52:12.428Z,10.60
2023-08-20T16:57:14.279Z,11.23
2023-08-20T17:02:16.191Z,10.20
2023-08-20T17:07:18.167Z,10.60
2023-08-20T17:12:20.057Z,10.85
2023-08-20T17:17:22.334Z,8.75
2023-08-20T17:22:24.216Z,12.45
2023-08-20T17:27:26.085Z,11.80
2023-08-20T17:32:27.978Z,9.80
2023-08-20T17:37:30.416Z,9.25
2023-08-20T17:42:32.303Z,11.93
2023-08-20T17:47:34.144Z,9.88
2023-08-20T17:52:36.241Z,9.45
2023-08-20T17:57:38.526Z,9.23
2023-08-20T18:02:40.782Z,8.27
2023-08-20T18:07:43.193Z,9.25
2023-08-20T18:12:45.095Z,8.88
2023-08-20T18:17:46.981Z,8.57
2023-08-20T18:22:48.807Z,8.27
2023-08-20T18:27:50.664Z,8.25
2023-08-20T18:32:52.564Z,8.15
2023-08-20T18:37:54.679Z,8.98
2023-08-20T18:42:56.569Z,8.35
2023-08-20T18:47:58.483Z,7.82
2023-08-20T18:53:00.312Z,8.48
2023-08-20T18:58:02.219Z,9.23
2023-08-20T19:03:04.838Z,9.13
2023-08-20T19:08:06.817Z,9.65
2023-08-20T19:13:08.914Z,9.48
2023-08-20T19:18:10.883Z,8.75
2023-08-20T19:23:12.858Z,8.85
2023-08-20T19:28:14.751Z,8.57
2023-08-20T19:33:18.557Z,9.13
2023-08-20T19:38:20.385Z,9.18
2023-08-20T19:43:22.808Z,8.98
2023-08-20T19:48:24.987Z,9.23
2023-08-20T19:53:26.857Z,8.70
2023-08-20T19:58:28.719Z,9.20
2023-08-20T20:03:30.613Z,9.23
2023-08-20T20:08:32.423Z,8.73
2023-08-20T20:13:34.273Z,8.95
2023-08-20T20:18:36.143Z,9.68
2023-08-20T20:23:37.947Z,8.82
2023-08-20T20:28:42.590Z,9.40
2023-08-20T20:33:44.663Z,9.20
2023-08-20T20:38:46.483Z,8.80
2023-08-20T20:43:48.306Z,9.65
2023-08-20T20:48:50.156Z,8.90
2023-08-20T20:53:54.205Z,9.75
2023-08-20T20:58:56.124Z,9.75
2023-08-20T21:03:58.023Z,9.82
2023-08-20T21:09:00.599Z,10.20
2023-08-20T21:14:02.522Z,10.00
2023-08-20T21:19:04.871Z,13.07
2023-08-20T21:24:06.839Z,12.43
2023-08-20T21:29:08.807Z,10.77
2023-08-20T21:34:10.600Z,10.32
2023-08-20T21:39:12.489Z,9.60
2023-08-20T21:44:16.103Z,9.13
2023-08-20T21:49:20.137Z,9.15
2023-08-20T21:54:22.442Z,9.15
2023-08-20T21:59:24.298Z,9.10
2023-08-20T22:04:26.353Z,10.10
2023-08-20T22:09:31.409Z,9.18
2023-08-20T22:14:35.080Z,8.68
2023-08-20T22:19:37.535Z,9.52
2023-08-20T22:24:39.747Z,10.20
2023-08-20T22:29:43.072Z,10.50
2023-08-20T22:34:44.955Z,10.90
2023-08-20T22:39:46.773Z,10.80
2023-08-20T22:44:48.587Z,11.23
2023-08-20T22:49:50.428Z,10.90
2023-08-20T22:54:52.358Z,9.90
2023-08-20T22:59:54.131Z,10.25
2023-08-20T23:04:56.028Z,10.57
2023-08-20T23:09:58.221Z,9.82
2023-08-20T23:15:02.857Z,10.57
2023-08-20T23:20:07.504Z,10.30
2023-08-20T23:25:10.096Z,11.48
2023-08-20T23:30:12.423Z,10.95
2023-08-20T23:35:14.364Z,11.23
2023-08-20T23:40:16.297Z,11.40
2023-08-20T23:45:18.099Z,10.63
2023-08-20T23:50:19.974Z,11.73
2023-08-20T23:55:21.868Z,11.77
